createdAt,value
2023-04-11T00:01:36.447Z,11.20
2023-04-11T00:04:03.628Z,11.70
2023-04-11T00:06:33.201Z,11.50
2023-04-11T00:09:01.705Z,10.90
2023-04-11T00:11:29.417Z,10.40
2023-04-11T00:13:58.170Z,10.10
2023-04-11T00:16:26.215Z,10.20
2023-04-11T00:18:53.934Z,10.60
2023-04-11T00:21:20.922Z,10.20
2023-04-11T00:23:48.649Z,10.60
2023-04-11T00:26:15.781Z,11.20
2023-04-11T00:28:43.965Z,11.10
2023-04-11T00:31:11.899Z,11.70
2023-04-11T00:33:40.496Z,11.60
2023-04-11T00:36:08.613Z,11.20
2023-04-11T00:38:37.656Z,12.00
2023-04-11T00:41:10.252Z,12.70
2023-04-11T00:43:49.023Z,12.00
2023-04-11T00:46:16.689Z,11.70
2023-04-11T00:48:43.565Z,13.10
2023-04-11T00:51:23.382Z,11.40
2023-04-11T00:53:50.592Z,11.50
2023-04-11T00:56:17.744Z,11.30
2023-04-11T00:58:45.046Z,11.50
2023-04-11T01:01:12.103Z,11.70
2023-04-11T01:03:39.418Z,12.20
2023-04-11T01:06:09.623Z,11.70
2023-04-11T01:08:37.814Z,12.40
2023-04-11T01:11:06.232Z,12.10
2023-04-11T01:13:33.638Z,12.10
2023-04-11T01:16:03.380Z,13.00
2023-04-11T01:18:31.202Z,12.40
2023-04-11T01:20:59.875Z,11.80
2023-04-11T01:23:27.393Z,11.40
2023-04-11T01:25:54.328Z,12.30
2023-04-11T01:28:22.281Z,12.00
2023-04-11T01:30:49.272Z,11.20
2023-04-11T01:33:17.574Z,10.90
2023-04-11T01:35:45.436Z,11.90
2023-04-11T01:38:12.952Z,11.30
2023-04-11T01:40:40.008Z,12.00
2023-04-11T01:43:08.746Z,12.20
2023-04-11T01:45:35.982Z,12.20
2023-04-11T01:48:06.971Z,12.20
2023-04-11T01:50:35.357Z,12.40
2023-04-11T01:53:02.246Z,11.60
2023-04-11T01:55:33.561Z,12.00
2023-04-11T01:58:00.801Z,11.50
2023-04-11T02:00:27.785Z,11.30
2023-04-11T02:02:55.122Z,11.50
2023-04-11T02:05:23.201Z,10.70
2023-04-11T02:07:50.278Z,11.40
2023-04-11T02:10:18.162Z,11.80
2023-04-11T02:12:45.603Z,11.40
2023-04-11T02:17:46.440Z,11.20
2023-04-11T02:20:13.810Z,11.60
2023-04-11T02:22:47.072Z,11.90
2023-04-11T02:25:16.289Z,12.00
2023-04-11T02:27:43.115Z,11.00
2023-04-11T02:30:13.015Z,11.50
2023-04-11T02:32:42.366Z,12.00
2023-04-11T02:35:10.574Z,11.50
2023-04-11T02:37:38.797Z,11.90
2023-04-11T02:40:07.569Z,12.20
2023-04-11T02:42:39.946Z,10.90
2023-04-11T02:45:08.284Z,11.60
2023-04-11T02:47:35.375Z,11.40
2023-04-11T02:50:06.970Z,11.20
2023-04-11T02:52:41.510Z,11.50
2023-04-11T02:55:09.423Z,11.80
2023-04-11T02:57:37.200Z,11.90
2023-04-11T03:00:08.997Z,11.00
2023-04-11T03:02:49.003Z,11.40
2023-04-11T03:05:19.423Z,11.10
2023-04-11T03:07:48.019Z,11.70
2023-04-11T03:10:23.749Z,11.60
2023-04-11T03:12:50.981Z,11.60
2023-04-11T03:15:17.781Z,11.70
2023-04-11T03:17:46.111Z,12.10
2023-04-11T03:20:19.000Z,11.70
2023-04-11T03:25:14.765Z,11.50
2023-04-11T03:27:42.441Z,12.10
2023-04-11T03:30:15.873Z,11.60
2023-04-11T03:32:45.978Z,11.80
2023-04-11T03:35:14.311Z,12.00
2023-04-11T03:37:44.881Z,11.00
2023-04-11T03:40:12.212Z,11.10
2023-04-11T03:42:41.469Z,10.90
2023-04-11T03:45:09.977Z,10.80
2023-04-11T03:47:38.939Z,11.30
2023-04-11T03:50:07.089Z,11.40
2023-04-11T03:52:38.377Z,11.20
2023-04-11T03:55:10.135Z,11.80
2023-04-11T03:57:37.063Z,11.40
2023-04-11T04:00:09.503Z,11.10
2023-04-11T04:03:06.649Z,11.30
2023-04-11T04:05:34.409Z,11.70
2023-04-11T04:08:05.883Z,11.20
2023-04-11T04:10:46.470Z,11.70
2023-04-11T04:13:13.574Z,11.40
2023-04-11T04:15:50.913Z,12.10
2023-04-11T04:18:18.868Z,11.00
2023-04-11T04:20:47.252Z,11.30
2023-04-11T04:23:17.495Z,11.00
2023-04-11T04:25:57.675Z,11.50
2023-04-11T04:28:33.178Z,11.70
2023-04-11T04:31:03.415Z,11.60
2023-04-11T04:33:42.142Z,11.50
2023-04-11T04:36:24.440Z,11.70
2023-04-11T04:38:52.302Z,11.00
2023-04-11T04:41:22.354Z,10.80
2023-04-11T04:43:57.620Z,11.40
2023-04-11T04:46:36.830Z,11.30
2023-04-11T04:49:05.455Z,11.30
2023-04-11T04:51:32.469Z,10.50
2023-04-11T04:54:07.442Z,11.00
2023-04-11T04:56:35.457Z,10.90
2023-04-11T04:59:04.710Z,11.00
2023-04-11T05:01:34.764Z,10.70
2023-04-11T05:04:03.342Z,10.20
2023-04-11T05:06:52.801Z,10.90
2023-04-11T05:09:27.715Z,10.90
2023-04-11T05:11:58.842Z,10.80
2023-04-11T05:14:25.709Z,10.60
2023-04-11T05:16:53.251Z,11.00
2023-04-11T05:19:20.497Z,10.20
2023-04-11T05:21:48.367Z,11.00
2023-04-11T05:24:16.094Z,10.20
2023-04-11T05:26:43.690Z,10.50
2023-04-11T05:29:11.071Z,9.30
2023-04-11T05:31:41.560Z,9.30
2023-04-11T05:34:08.622Z,9.60
2023-04-11T05:36:36.197Z,9.60
2023-04-11T05:39:04.046Z,9.40
2023-04-11T05:41:31.356Z,9.60
2023-04-11T05:43:58.357Z,9.70
2023-04-11T05:46:27.157Z,9.40
2023-04-11T05:48:53.941Z,9.40
2023-04-11T05:51:25.945Z,9.00
2023-04-11T05:53:54.837Z,9.00
2023-04-11T05:56:22.349Z,9.00
2023-04-11T05:58:51.731Z,8.50
2023-04-11T06:01:19.372Z,8.70
2023-04-11T06:03:46.595Z,8.10
2023-04-11T06:06:15.229Z,8.60
2023-04-11T06:08:42.978Z,8.90
2023-04-11T06:11:10.618Z,8.50
2023-04-11T06:13:41.888Z,8.30
2023-04-11T06:16:09.060Z,8.30
2023-04-11T06:18:35.975Z,8.80
2023-04-11T06:21:06.801Z,7.70
2023-04-11T06:23:34.268Z,7.20
2023-04-11T06:26:01.092Z,7.40
2023-04-11T06:28:29.059Z,7.90
2023-04-11T06:30:56.625Z,7.20
2023-04-11T06:33:24.285Z,7.20
2023-04-11T06:35:51.283Z,7.10
2023-04-11T06:38:18.709Z,7.00
2023-04-11T06:40:46.387Z,6.50
2023-04-11T06:43:14.360Z,6.70
2023-04-11T06:45:41.207Z,7.10
2023-04-11T06:48:08.006Z,7.00
2023-04-11T06:50:41.203Z,6.80
2023-04-11T06:53:11.280Z,7.00
2023-04-11T06:55:39.927Z,6.80
2023-04-11T06:58:06.741Z,6.40
2023-04-11T07:00:34.044Z,6.70
2023-04-11T07:03:07.086Z,6.80
2023-04-11T07:05:39.444Z,6.30
2023-04-11T07:08:09.347Z,6.20
2023-04-11T07:10:36.297Z,5.90
2023-04-11T07:13:03.183Z,6.60
2023-04-11T07:15:31.470Z,6.20
2023-04-11T07:17:59.494Z,6.60
2023-04-11T07:20:26.859Z,5.90
2023-04-11T07:22:56.174Z,6.30
2023-04-11T07:25:29.923Z,6.00
2023-04-11T07:27:57.171Z,5.70
2023-04-11T07:30:24.675Z,5.90
2023-04-11T07:33:02.547Z,5.60
2023-04-11T07:35:31.002Z,5.80
2023-04-11T07:37:57.931Z,5.90
2023-04-11T07:40:24.760Z,5.80
2023-04-11T07:42:51.769Z,5.60
2023-04-11T07:45:19.309Z,5.60
2023-04-11T07:47:47.529Z,6.10
2023-04-11T07:50:15.392Z,5.90
2023-04-11T07:52:42.234Z,5.90
2023-04-11T07:55:09.721Z,6.20
2023-04-11T07:57:36.796Z,5.60
2023-04-11T08:00:06.364Z,5.50
2023-04-11T08:02:40.228Z,6.00
2023-04-11T08:05:09.384Z,6.00
2023-04-11T08:07:36.967Z,5.60
2023-04-11T08:10:05.189Z,6.00
2023-04-11T08:12:33.966Z,5.50
2023-04-11T08:15:06.518Z,5.60
2023-04-11T08:17:37.321Z,6.10
2023-04-11T08:20:08.199Z,6.10
2023-04-11T08:22:46.302Z,5.50
2023-04-11T08:25:13.894Z,5.90
2023-04-11T08:27:40.888Z,5.60
2023-04-11T08:30:08.396Z,6.00
2023-04-11T08:32:35.680Z,5.10
2023-04-11T08:35:03.189Z,5.40
2023-04-11T08:37:30.761Z,5.30
2023-04-11T08:39:57.584Z,5.50
2023-04-11T08:42:25.921Z,5.40
2023-04-11T08:44:56.850Z,5.00
2023-04-11T08:47:24.936Z,5.20
2023-04-11T08:49:52.205Z,5.30
2023-04-11T08:52:19.505Z,4.90
2023-04-11T08:54:47.921Z,5.20
2023-04-11T08:57:28.005Z,5.60
2023-04-11T08:59:55.707Z,5.50
2023-04-11T09:02:22.906Z,5.40
2023-04-11T09:04:50.973Z,5.10
2023-04-11T09:07:18.694Z,5.30
2023-04-11T09:09:45.960Z,4.70
2023-04-11T09:12:14.035Z,4.80
2023-04-11T09:14:42.485Z,4.60
2023-04-11T09:17:12.861Z,5.10
2023-04-11T09:19:41.406Z,5.00
2023-04-11T09:22:08.342Z,5.10
2023-04-11T09:24:37.001Z,5.40
2023-04-11T09:27:11.252Z,4.90
2023-04-11T09:29:44.985Z,4.50
2023-04-11T09:32:31.795Z,4.80
2023-04-11T09:35:22.182Z,4.90
2023-04-11T09:37:54.440Z,4.80
2023-04-11T09:40:22.996Z,4.20
2023-04-11T09:42:56.718Z,4.00
2023-04-11T09:45:24.863Z,4.50
2023-04-11T09:47:55.452Z,4.50
2023-04-11T09:50:22.950Z,4.10
2023-04-11T09:52:57.077Z,5.00
2023-04-11T09:55:26.716Z,5.10
2023-04-11T09:57:54.091Z,4.50
2023-04-11T10:00:28.724Z,5.00
2023-04-11T10:02:56.457Z,4.70
2023-04-11T10:05:27.382Z,4.50
2023-04-11T10:08:04.626Z,4.30
2023-04-11T10:10:31.633Z,4.80
2023-04-11T10:12:58.896Z,4.50
2023-04-11T10:15:26.561Z,4.30
2023-04-11T10:18:11.106Z,4.90
2023-04-11T10:20:43.065Z,4.50
2023-04-11T10:23:10.721Z,4.80
2023-04-11T10:25:54.734Z,4.50
2023-04-11T10:28:38.554Z,4.40
2023-04-11T10:31:06.966Z,4.20
2023-04-11T10:33:34.369Z,4.30
2023-04-11T10:36:03.109Z,4.20
2023-04-11T10:38:36.552Z,4.40
2023-04-11T10:41:32.977Z,4.70
2023-04-11T10:44:17.752Z,4.60
2023-04-11T10:46:48.978Z,4.40
2023-04-11T10:49:38.416Z,4.10
2023-04-11T10:52:21.094Z,4.40
2023-04-11T10:54:52.480Z,4.20
2023-04-11T10:57:27.971Z,4.50
2023-04-11T10:59:56.463Z,4.70
2023-04-11T11:02:24.099Z,4.00
2023-04-11T11:04:51.916Z,4.00
2023-04-11T11:07:18.895Z,4.40
2023-04-11T11:09:50.392Z,4.50
2023-04-11T11:12:17.250Z,4.50
2023-04-11T11:14:45.601Z,4.30
2023-04-11T11:17:13.098Z,4.50
2023-04-11T11:19:44.504Z,4.20
2023-04-11T11:22:17.099Z,4.70
2023-04-11T11:24:44.726Z,4.80
2023-04-11T11:27:19.420Z,4.20
2023-04-11T11:29:46.348Z,4.60
2023-04-11T11:32:24.744Z,4.30
2023-04-11T11:34:52.461Z,4.60
2023-04-11T11:37:20.531Z,4.50
2023-04-11T11:39:47.846Z,4.50
2023-04-11T11:42:15.149Z,4.20
2023-04-11T11:44:42.225Z,4.40
2023-04-11T11:47:16.952Z,4.40
2023-04-11T11:49:44.922Z,4.70
2023-04-11T11:52:17.244Z,4.70
2023-04-11T11:54:48.065Z,5.10
2023-04-11T11:57:22.118Z,4.60
2023-04-11T11:59:55.772Z,4.40
2023-04-11T12:02:23.140Z,3.90
2023-04-11T12:05:03.596Z,3.80
2023-04-11T12:07:36.217Z,4.00
2023-04-11T12:10:08.235Z,3.90
2023-04-11T12:12:36.153Z,4.20
2023-04-11T12:15:10.621Z,5.00
2023-04-11T12:17:38.135Z,4.40
2023-04-11T12:20:10.003Z,4.50
2023-04-11T12:22:37.343Z,4.60
2023-04-11T12:25:08.084Z,4.30
2023-04-11T12:27:39.297Z,4.60
2023-04-11T12:30:07.350Z,4.60
2023-04-11T12:32:41.250Z,4.40
2023-04-11T12:35:08.619Z,4.70
2023-04-11T12:37:35.744Z,4.30
2023-04-11T12:40:09.678Z,4.60
2023-04-11T12:42:48.945Z,4.30
2023-04-11T12:45:22.685Z,4.30
2023-04-11T12:47:49.985Z,4.30
2023-04-11T12:50:23.224Z,4.40
2023-04-11T12:52:53.796Z,3.80
2023-04-11T12:55:21.887Z,4.10
2023-04-11T12:57:51.460Z,5.20
2023-04-11T13:00:18.985Z,4.10
2023-04-11T13:02:48.045Z,3.90
2023-04-11T13:05:16.663Z,3.80
2023-04-11T13:07:44.615Z,4.40
2023-04-11T13:10:13.085Z,4.30
2023-04-11T13:12:41.001Z,3.90
2023-04-11T13:15:11.328Z,4.10
2023-04-11T13:17:38.341Z,4.40
2023-04-11T13:20:09.561Z,4.30
2023-04-11T13:22:40.813Z,4.30
2023-04-11T13:25:08.109Z,4.20
2023-04-11T13:27:36.746Z,4.40
2023-04-11T13:30:06.048Z,3.70
2023-04-11T13:32:35.286Z,4.40
2023-04-11T13:35:03.535Z,4.10
2023-04-11T13:37:31.101Z,4.20
2023-04-11T13:39:58.254Z,4.20
2023-04-11T13:42:27.474Z,4.10
2023-04-11T13:44:54.740Z,4.70
2023-04-11T13:47:21.540Z,4.10
2023-04-11T13:49:48.503Z,4.20
2023-04-11T13:52:15.630Z,4.40
2023-04-11T13:54:45.369Z,4.10
2023-04-11T13:57:14.294Z,4.50
2023-04-11T13:59:41.148Z,4.40
2023-04-11T14:02:09.176Z,4.40
2023-04-11T14:04:36.680Z,4.80
2023-04-11T14:07:03.610Z,4.10
2023-04-11T14:09:34.673Z,3.80
2023-04-11T14:12:01.700Z,4.40
2023-04-11T14:14:32.596Z,5.00
2023-04-11T14:16:59.951Z,4.60
2023-04-11T14:19:52.290Z,4.90
2023-04-11T14:22:19.148Z,4.70
2023-04-11T14:24:46.117Z,4.40
2023-04-11T14:27:16.189Z,4.60
2023-04-11T14:29:44.465Z,4.50
2023-04-11T14:32:11.402Z,4.80
2023-04-11T14:34:39.111Z,4.80
2023-04-11T14:37:06.375Z,4.60
2023-04-11T14:39:39.297Z,5.00
2023-04-11T14:42:06.592Z,4.80
2023-04-11T14:44:34.967Z,4.70
2023-04-11T14:47:01.985Z,4.70
2023-04-11T14:49:29.146Z,4.90
2023-04-11T14:52:01.725Z,5.10
2023-04-11T14:54:28.887Z,5.30
2023-04-11T14:56:57.156Z,4.60
2023-04-11T14:59:24.712Z,4.80
2023-04-11T15:01:52.512Z,4.70
2023-04-11T15:04:19.979Z,4.80
2023-04-11T15:06:47.840Z,4.60
2023-04-11T15:09:19.703Z,5.30
2023-04-11T15:11:46.809Z,4.90
2023-04-11T15:14:18.624Z,5.00
2023-04-11T15:16:47.814Z,5.60
2023-04-11T15:19:14.957Z,5.60
2023-04-11T15:21:46.120Z,5.40
2023-04-11T15:24:16.690Z,4.80
2023-04-11T15:26:46.650Z,4.80
2023-04-11T15:29:17.206Z,4.90
2023-04-11T15:31:46.232Z,4.70
2023-04-11T15:34:13.600Z,5.40
2023-04-11T15:36:45.278Z,5.50
2023-04-11T15:39:12.315Z,5.10
2023-04-11T15:41:39.096Z,5.50
2023-04-11T15:44:06.184Z,5.50
2023-04-11T15:46:33.419Z,5.40
2023-04-11T15:49:07.252Z,5.70
2023-04-11T15:51:34.197Z,6.00
2023-04-11T15:54:01.210Z,5.10
2023-04-11T15:56:28.141Z,5.30
2023-04-11T15:58:55.055Z,5.80
2023-04-11T16:01:26.010Z,5.70
2023-04-11T16:03:59.271Z,6.10
2023-04-11T16:06:26.772Z,6.80
2023-04-11T16:08:54.222Z,6.50
2023-04-11T16:11:26.313Z,6.60
2023-04-11T16:13:54.484Z,6.10
2023-04-11T16:16:21.645Z,5.80
2023-04-11T16:18:50.530Z,5.40
2023-04-11T16:21:17.691Z,5.60
2023-04-11T16:23:48.363Z,5.70
2023-04-11T16:26:15.687Z,6.00
2023-04-11T16:28:42.574Z,7.60
2023-04-11T16:31:09.504Z,11.10
2023-04-11T16:33:37.316Z,10.10
2023-04-11T16:36:04.545Z,9.70
2023-04-11T16:38:31.596Z,7.60
2023-04-11T16:41:00.112Z,9.60
2023-04-11T16:43:26.997Z,7.80
2023-04-11T16:45:54.066Z,7.80
2023-04-11T16:48:21.041Z,7.60
2023-04-11T16:50:48.094Z,8.80
2023-04-11T16:53:16.914Z,8.00
2023-04-11T16:55:45.345Z,7.90
2023-04-11T16:58:12.271Z,9.30
2023-04-11T17:00:40.704Z,10.40
2023-04-11T17:03:08.231Z,10.40
2023-04-11T17:05:35.467Z,9.50
2023-04-11T17:08:05.754Z,11.50
2023-04-11T17:10:33.337Z,11.30
2023-04-11T17:13:00.521Z,10.80
2023-04-11T17:15:27.396Z,12.10
2023-04-11T17:17:55.248Z,12.50
2023-04-11T17:20:23.095Z,12.30
2023-04-11T17:22:51.242Z,11.00
2023-04-11T17:25:18.637Z,9.50
2023-04-11T17:27:49.026Z,11.60
2023-04-11T17:30:16.201Z,10.40
2023-04-11T17:32:46.443Z,8.90
2023-04-11T17:35:13.898Z,9.10
2023-04-11T17:37:41.002Z,8.40
2023-04-11T17:40:12.661Z,8.30
2023-04-11T17:42:40.930Z,8.00
2023-04-11T17:45:17.840Z,8.10
2023-04-11T17:47:47.017Z,8.10
2023-04-11T17:50:15.801Z,7.40
2023-04-11T17:52:43.993Z,6.60
2023-04-11T17:55:14.639Z,6.60
2023-04-11T17:57:42.212Z,7.00
2023-04-11T18:00:22.756Z,6.60
2023-04-11T18:02:57.076Z,7.30
2023-04-11T18:05:26.112Z,7.10
2023-04-11T18:07:58.647Z,7.10
2023-04-11T18:10:27.003Z,6.50
2023-04-11T18:12:55.930Z,8.50
2023-04-11T18:15:27.408Z,8.40
2023-04-11T18:17:54.938Z,7.70
2023-04-11T18:20:22.017Z,6.90
2023-04-11T18:22:55.618Z,6.80
2023-04-11T18:25:22.724Z,6.80
2023-04-11T18:27:49.944Z,6.10
2023-04-11T18:30:16.833Z,5.90
2023-04-11T18:32:50.156Z,5.80
2023-04-11T18:35:17.979Z,5.90
2023-04-11T18:37:46.595Z,6.00
2023-04-11T18:40:13.671Z,5.40
2023-04-11T18:42:46.689Z,5.50
2023-04-11T18:47:41.862Z,5.90
2023-04-11T18:50:09.889Z,5.90
2023-04-11T18:52:37.123Z,6.10
2023-04-11T18:55:04.383Z,6.00
2023-04-11T18:57:34.414Z,6.20
2023-04-11T19:00:14.948Z,6.80
2023-04-11T19:02:49.957Z,6.80
2023-04-11T19:05:18.885Z,6.70
2023-04-11T19:07:47.578Z,8.10
2023-04-11T19:10:15.627Z,9.20
2023-04-11T19:12:44.942Z,10.00
2023-04-11T19:15:19.208Z,10.20
2023-04-11T19:17:47.186Z,10.00
2023-04-11T19:20:15.957Z,8.30
2023-04-11T19:22:45.728Z,7.70
2023-04-11T19:25:14.065Z,7.20
2023-04-11T19:27:42.046Z,6.20
2023-04-11T19:30:10.741Z,10.60
2023-04-11T19:32:56.558Z,9.80
2023-04-11T19:35:24.720Z,11.40
2023-04-11T19:37:52.624Z,14.10
2023-04-11T19:40:22.669Z,10.60
2023-04-11T19:42:50.733Z,8.30
2023-04-11T19:45:18.631Z,7.60
2023-04-11T19:47:46.784Z,6.60
2023-04-11T19:50:14.208Z,6.70
2023-04-11T19:52:42.268Z,6.40
2023-04-11T19:55:10.399Z,6.50
2023-04-11T19:57:43.193Z,6.20
2023-04-11T20:00:16.558Z,6.40
2023-04-11T20:02:45.438Z,6.90
2023-04-11T20:05:17.801Z,5.90
2023-04-11T20:07:46.570Z,6.30
2023-04-11T20:10:18.340Z,6.50
2023-04-11T20:12:46.423Z,7.00
2023-04-11T20:15:14.374Z,6.30
2023-04-11T20:17:45.904Z,6.30
2023-04-11T20:20:14.853Z,6.70
2023-04-11T20:22:44.126Z,6.30
2023-04-11T20:25:11.546Z,6.10
2023-04-11T20:27:40.914Z,6.10
2023-04-11T20:30:10.003Z,6.70
2023-04-11T20:32:38.121Z,5.70
2023-04-11T20:35:05.959Z,6.10
2023-04-11T20:37:34.528Z,5.60
2023-04-11T20:40:01.878Z,6.40
2023-04-11T20:42:31.150Z,6.20
2023-04-11T20:45:15.748Z,5.80
2023-04-11T20:47:47.112Z,5.80
2023-04-11T20:50:15.194Z,7.20
2023-04-11T20:52:45.164Z,6.60
2023-04-11T20:55:13.925Z,5.80
2023-04-11T20:57:40.991Z,5.70
2023-04-11T21:00:18.080Z,5.50
2023-04-11T21:02:50.584Z,4.90
2023-04-11T21:05:19.136Z,5.60
2023-04-11T21:07:54.815Z,4.70
2023-04-11T21:10:22.201Z,4.70
2023-04-11T21:12:50.827Z,4.90
2023-04-11T21:15:19.557Z,4.60
2023-04-11T21:17:47.102Z,4.80
2023-04-11T21:20:17.096Z,4.90
2023-04-11T21:22:55.105Z,4.50
2023-04-11T21:25:22.712Z,4.70
2023-04-11T21:27:49.689Z,4.90
2023-04-11T21:30:16.535Z,5.30
2023-04-11T21:32:46.090Z,5.40
2023-04-11T21:35:13.013Z,4.50
2023-04-11T21:37:39.879Z,5.10
2023-04-11T21:40:13.393Z,5.70
2023-04-11T21:42:41.049Z,6.70
2023-04-11T21:45:08.220Z,6.80
2023-04-11T21:47:35.382Z,7.00
2023-04-11T21:50:02.389Z,7.60
2023-04-11T21:52:37.522Z,7.20
2023-04-11T21:55:08.567Z,6.00
2023-04-11T21:57:35.880Z,6.30
2023-04-11T22:00:04.272Z,5.20
2023-04-11T22:02:39.719Z,5.10
2023-04-11T22:05:08.734Z,4.90
2023-04-11T22:07:38.146Z,4.90
2023-04-11T22:10:09.012Z,5.00
2023-04-11T22:12:37.395Z,4.90
2023-04-11T22:15:04.814Z,10.30
2023-04-11T22:17:32.645Z,20.50
2023-04-11T22:19:59.785Z,15.80
2023-04-11T22:22:29.683Z,13.80
2023-04-11T22:24:59.310Z,16.70
2023-04-11T22:27:26.672Z,22.60
2023-04-11T22:29:57.233Z,22.60
2023-04-11T22:32:24.636Z,12.70
2023-04-11T22:34:51.521Z,10.30
2023-04-11T22:37:18.656Z,7.30
2023-04-11T22:39:45.455Z,5.70
2023-04-11T22:42:12.758Z,5.50
2023-04-11T22:44:40.307Z,5.10
2023-04-11T22:47:10.602Z,5.60
2023-04-11T22:49:42.280Z,5.20
2023-04-11T22:52:10.054Z,5.30
2023-04-11T22:54:37.919Z,5.90
2023-04-11T22:57:04.822Z,9.60
2023-04-11T22:59:33.211Z,15.30
2023-04-11T23:02:01.094Z,13.80
2023-04-11T23:04:28.081Z,12.90
2023-04-11T23:06:57.582Z,13.80
2023-04-11T23:09:24.623Z,11.80
2023-04-11T23:11:52.837Z,12.80
2023-04-11T23:14:21.597Z,10.20
2023-04-11T23:16:48.715Z,8.90
2023-04-11T23:19:16.500Z,11.60
2023-04-11T23:21:43.999Z,11.60
2023-04-11T23:24:10.791Z,13.80
2023-04-11T23:26:37.704Z,11.70
2023-04-11T23:29:04.846Z,11.00
2023-04-11T23:31:33.133Z,11.00
2023-04-11T23:34:00.363Z,10.70
2023-04-11T23:36:28.435Z,10.60
2023-04-11T23:38:56.112Z,9.70
2023-04-11T23:41:35.193Z,10.10
2023-04-11T23:44:01.965Z,10.30
2023-04-11T23:46:29.119Z,11.40
2023-04-11T23:48:56.414Z,10.50
2023-04-11T23:51:23.572Z,10.00
2023-04-11T23:54:01.125Z,13.70
2023-04-11T23:56:29.155Z,14.90
2023-04-11T23:58:55.906Z,15.20
